Time;durP1;ratioP1;P1;durP2;ratioP2;P2;SDS_P1;SDS_P2;PMS_P1;PMS_P2;Temp;Humidity;BMP_temperature;BMP_pressure;BME280_temperature;BME280_humidity;BME280_pressure;Samples;Min_cycle;Max_cycle;Signal;HPM_P1;HPM_P2
2022/01/27 00:00:46;;;;;;;12.57;8.25;;;18.10;29.70;;;;;;5167768;27;47059;-15
2022/01/27 00:03:23;;;;;;;11.15;8.30;;;18.20;29.60;;;;;;5167535;27;48052;-21
2022/01/27 00:05:52;;;;;;;11.90;8.32;;;18.30;29.50;;;;;;5167789;27;46826;-22
2022/01/27 00:08:24;;;;;;;11.65;8.57;;;18.40;29.30;;;;;;5167765;27;46907;-21
2022/01/27 00:10:54;;;;;;;10.70;8.25;;;18.50;29.30;;;;;;5168040;27;47210;-15
2022/01/27 00:13:32;;;;;;;11.50;8.60;;;18.60;29.20;;;;;;5167271;27;49522;-15
2022/01/27 00:16:11;;;;;;;11.32;8.10;;;18.60;29.10;;;;;;5167621;27;47158;-14
2022/01/27 00:18:39;;;;;;;11.98;7.90;;;18.70;29.10;;;;;;5168863;27;46883;-15
2022/01/27 00:21:06;;;;;;;11.05;8.27;;;18.70;29.00;;;;;;5171648;27;46913;-15
2022/01/27 00:23:32;;;;;;;10.57;8.25;;;18.60;29.00;;;;;;5171376;27;48967;-16
2022/01/27 00:25:59;;;;;;;10.80;8.60;;;18.60;29.00;;;;;;5171084;27;46796;-15
2022/01/27 00:28:27;;;;;;;12.07;8.30;;;18.60;29.10;;;;;;5171052;27;46859;-15
2022/01/27 00:30:54;;;;;;;11.50;8.35;;;18.60;29.10;;;;;;5171783;27;47309;-15
2022/01/27 00:33:20;;;;;;;9.75;7.70;;;18.50;29.10;;;;;;5170501;27;47928;-15
2022/01/27 00:35:48;;;;;;;10.50;7.75;;;18.50;29.10;;;;;;5170920;27;46901;-15
2022/01/27 00:38:15;;;;;;;12.32;8.82;;;18.40;29.20;;;;;;5171353;27;46801;-21
2022/01/27 00:40:42;;;;;;;11.90;8.65;;;18.40;29.30;;;;;;5171105;27;47310;-15
2022/01/27 00:43:08;;;;;;;12.23;8.85;;;18.30;29.30;;;;;;5171018;27;47135;-15
2022/01/27 00:45:35;;;;;;;12.15;8.90;;;18.20;29.40;;;;;;5170868;27;46858;-17
2022/01/27 00:48:04;;;;;;;12.60;8.35;;;18.20;29.50;;;;;;5170944;27;46832;-14
2022/01/27 00:50:32;;;;;;;11.40;8.20;;;18.10;29.50;;;;;;5171170;27;46940;-15
2022/01/27 00:53:03;;;;;;;12.90;8.52;;;18.10;29.60;;;;;;5170765;27;47902;-15
2022/01/27 00:55:31;;;;;;;11.48;8.05;;;18.00;29.60;;;;;;5170980;27;46898;-15
2022/01/27 00:58:12;;;;;;;11.18;8.80;;;18.00;29.70;;;;;;5170408;27;46873;-21
2022/01/27 01:00:44;;;;;;;10.70;7.90;;;18.00;29.70;;;;;;5171137;27;46902;-22
2022/01/27 01:03:21;;;;;;;12.57;8.68;;;18.10;29.60;;;;;;5170466;27;48148;-15
2022/01/27 01:06:05;;;;;;;12.77;8.82;;;18.20;29.60;;;;;;5170826;27;46802;-15
2022/01/27 01:09:32;;;;;;;10.98;8.45;;;18.30;29.40;;;;;;5170925;27;46795;-15
2022/01/27 01:12:10;;;;;;;12.80;8.68;;;18.40;29.30;;;;;;5170421;27;46971;-15
2022/01/27 01:14:45;;;;;;;12.75;9.10;;;18.60;29.10;;;;;;5170606;27;48122;-15
2022/01/27 01:31:16;;;;;;;11.90;8.77;;;18.80;28.80;;;;;;5167339;27;47026;-15
2022/01/27 01:33:45;;;;;;;10.30;7.63;;;18.70;28.80;;;;;;5170512;27;47037;-15
2022/01/27 01:36:26;;;;;;;12.52;8.80;;;18.70;28.90;;;;;;5169954;27;48549;-15
2022/01/27 01:38:52;;;;;;;11.18;8.45;;;18.60;28.90;;;;;;5170240;27;47041;-15
2022/01/27 01:41:21;;;;;;;12.93;9.30;;;18.60;28.90;;;;;;5170244;27;46813;-15
2022/01/27 01:43:47;;;;;;;11.70;8.50;;;18.50;29.00;;;;;;5170413;27;46944;-15
2022/01/27 01:46:14;;;;;;;11.30;8.27;;;18.50;29.00;;;;;;5169701;27;49034;-15
2022/01/27 01:48:41;;;;;;;10.60;8.25;;;18.40;29.10;;;;;;5169775;27;46870;-15
2022/01/27 01:51:07;;;;;;;11.70;8.82;;;18.40;29.20;;;;;;5170025;27;46901;-15
2022/01/27 01:53:34;;;;;;;11.95;8.82;;;18.30;29.20;;;;;;5170068;27;46904;-15
2022/01/27 01:56:01;;;;;;;10.32;7.82;;;18.20;29.30;;;;;;5169636;27;48656;-22
2022/01/27 01:58:29;;;;;;;12.57;9.05;;;18.20;29.90;;;;;;5169814;27;46936;-22
2022/01/27 02:00:56;;;;;;;13.05;9.32;;;18.10;29.50;;;;;;5169659;27;46821;-22
2022/01/27 02:03:22;;;;;;;12.27;8.95;;;18.00;29.50;;;;;;5169812;27;46907;-21
2022/01/27 02:05:54;;;;;;;10.50;8.57;;;18.00;29.60;;;;;;5169920;27;48851;-21
2022/01/27 02:08:36;;;;;;;10.65;7.75;;;18.00;29.60;;;;;;5169589;27;46821;-21
2022/01/27 02:19:20;;;;;;;12.05;8.95;;;18.30;29.30;;;;;;5166637;27;46781;-16
2022/01/27 02:21:49;;;;;;;12.43;8.27;;;18.40;29.20;;;;;;5169390;27;46845;-22
2022/01/27 02:24:16;;;;;;;11.70;8.07;;;18.60;29.10;;;;;;5169780;27;46835;-22
2022/01/27 02:26:43;;;;;;;12.50;9.00;;;18.60;28.90;;;;;;5169158;27;46997;-21
2022/01/27 02:29:09;;;;;;;10.75;8.30;;;18.70;28.80;;;;;;5169091;27;46745;-21
2022/01/27 02:31:36;;;;;;;11.10;8.50;;;18.70;28.70;;;;;;5168754;27;46875;-22
2022/01/27 02:34:05;;;;;;;11.38;7.93;;;18.80;28.70;;;;;;5169530;27;47004;-21
2022/01/27 02:36:31;;;;;;;11.40;8.60;;;18.80;28.70;;;;;;5169278;27;47955;-21
2022/01/27 02:38:59;;;;;;;11.32;8.18;;;18.80;28.70;;;;;;5169109;27;46945;-21
2022/01/27 02:41:27;;;;;;;11.13;8.23;;;18.70;28.70;;;;;;5168228;27;46871;-21
2022/01/27 02:43:55;;;;;;;12.65;8.77;;;18.70;28.70;;;;;;5169181;27;47072;-20
2022/01/27 02:46:25;;;;;;;10.65;7.75;;;18.60;28.80;;;;;;5169045;27;48902;-21
2022/01/27 02:48:52;;;;;;;11.48;7.95;;;18.60;28.90;;;;;;5169093;27;47442;-21
2022/01/27 02:51:19;;;;;;;10.57;8.25;;;18.60;28.90;;;;;;5169129;27;47070;-21
2022/01/27 02:53:45;;;;;;;10.48;7.88;;;18.50;28.90;;;;;;5169197;27;46955;-21
2022/01/27 02:56:13;;;;;;;11.02;8.15;;;18.40;29.40;;;;;;5168842;27;48880;-21
2022/01/27 02:58:40;;;;;;;10.88;7.75;;;18.40;29.10;;;;;;5168938;27;46987;-15
2022/01/27 03:01:07;;;;;;;11.27;8.20;;;18.30;29.10;;;;;;5168903;27;46823;-16
2022/01/27 03:03:33;;;;;;;12.00;8.55;;;18.20;29.60;;;;;;5168883;27;47097;-15
2022/01/27 03:06:00;;;;;;;11.30;8.02;;;18.20;29.30;;;;;;5168738;27;46992;-16
2022/01/27 03:08:27;;;;;;;11.45;8.73;;;18.10;29.30;;;;;;5168664;27;47297;-16
2022/01/27 03:10:58;;;;;;;10.00;7.63;;;18.00;29.40;;;;;;5168819;27;46917;-15
2022/01/27 03:13:28;;;;;;;10.93;8.13;;;18.00;29.40;;;;;;5168726;27;46928;-22
2022/01/27 03:15:55;;;;;;;10.60;8.00;;;18.00;29.50;;;;;;5168591;27;47068;-21
2022/01/27 03:18:21;;;;;;;10.05;8.05;;;18.10;29.50;;;;;;5168162;27;46741;-21
2022/01/27 03:20:48;;;;;;;11.30;8.20;;;18.10;29.40;;;;;;5168603;27;46820;-16
2022/01/27 03:23:15;;;;;;;11.23;8.10;;;18.20;29.30;;;;;;5168732;27;46784;-14
2022/01/27 03:25:41;;;;;;;11.40;8.32;;;18.30;29.20;;;;;;5168180;27;48866;-15
2022/01/27 03:28:10;;;;;;;11.10;7.82;;;18.40;29.20;;;;;;5168178;27;46931;-15
2022/01/27 03:30:38;;;;;;;12.02;8.35;;;18.50;29.00;;;;;;5168660;27;46979;-15
2022/01/27 03:33:05;;;;;;;10.02;7.28;;;18.60;28.90;;;;;;5168120;27;47397;-15
2022/01/27 03:35:31;;;;;;;11.13;7.60;;;18.70;28.80;;;;;;5168272;27;46934;-15
2022/01/27 03:37:58;;;;;;;9.48;7.28;;;18.70;28.70;;;;;;5168098;27;47095;-15
2022/01/27 03:40:25;;;;;;;9.10;6.88;;;18.80;28.70;;;;;;5168457;27;46861;-16
2022/01/27 03:43:03;;;;;;;9.40;7.35;;;18.80;28.60;;;;;;5168458;27;46939;-15
2022/01/27 03:45:30;;;;;;;8.40;7.10;;;18.70;28.60;;;;;;5168504;27;47950;-15
2022/01/27 03:47:58;;;;;;;9.23;7.05;;;18.70;28.60;;;;;;5167803;27;46932;-15
2022/01/27 03:50:24;;;;;;;9.60;6.75;;;18.70;28.60;;;;;;5168422;27;46808;-15
2022/01/27 03:52:51;;;;;;;10.52;7.60;;;18.70;28.70;;;;;;5168234;27;47281;-15
2022/01/27 03:55:18;;;;;;;10.57;7.80;;;18.60;28.70;;;;;;5171525;27;47914;-16
2022/01/27 03:57:44;;;;;;;10.18;8.00;;;18.60;28.80;;;;;;5171514;27;46905;-16
2022/01/27 04:00:12;;;;;;;10.13;7.90;;;18.50;28.80;;;;;;5171657;27;46870;-21
2022/01/27 04:02:49;;;;;;;10.27;7.72;;;18.40;28.90;;;;;;5171791;27;47294;-21
2022/01/27 04:05:19;;;;;;;8.73;6.68;;;18.40;29.00;;;;;;5171834;27;47927;-22
2022/01/27 04:07:45;;;;;;;9.77;7.78;;;18.30;29.10;;;;;;5171262;27;46972;-21
2022/01/27 04:10:12;;;;;;;9.13;6.93;;;18.20;29.10;;;;;;5171540;27;46743;-21
2022/01/27 04:12:39;;;;;;;9.20;6.93;;;18.20;29.30;;;;;;5171584;27;47302;-21
2022/01/27 04:15:07;;;;;;;10.13;7.22;;;18.10;29.30;;;;;;5171583;27;48106;-21
2022/01/27 04:17:33;;;;;;;9.90;7.32;;;18.00;29.40;;;;;;5171325;27;46910;-21
2022/01/27 04:20:00;;;;;;;9.15;6.90;;;18.00;29.40;;;;;;5171841;27;46880;-22
2022/01/27 04:22:28;;;;;;;10.23;7.07;;;18.00;29.40;;;;;;5171708;27;47260;-21
2022/01/27 04:24:55;;;;;;;9.00;6.93;;;18.00;29.40;;;;;;5171468;27;46885;-21
2022/01/27 04:27:28;;;;;;;8.88;6.68;;;18.10;29.30;;;;;;5171198;27;47434;-22
2022/01/27 04:29:55;;;;;;;8.90;6.57;;;18.20;29.30;;;;;;5171567;27;46858;-22
2022/01/27 04:32:27;;;;;;;9.68;6.75;;;18.30;29.10;;;;;;5170824;27;47051;-21
2022/01/27 04:35:00;;;;;;;8.77;6.53;;;18.40;28.90;;;;;;5171255;27;48851;-21
2022/01/27 04:37:30;;;;;;;9.13;6.38;;;18.50;28.80;;;;;;5171120;27;46873;-22
2022/01/27 04:40:04;;;;;;;8.82;6.70;;;18.60;28.80;;;;;;5171218;27;46815;-21
2022/01/27 04:42:42;;;;;;;8.63;6.43;;;18.60;28.70;;;;;;5171409;27;47187;-21
2022/01/27 04:45:11;;;;;;;9.50;7.57;;;18.60;28.60;;;;;;5171197;27;47080;-21
2022/01/27 04:47:43;;;;;;;7.97;6.22;;;18.70;28.60;;;;;;5170715;27;46928;-22
2022/01/27 04:50:10;;;;;;;12.07;7.28;;;18.60;28.60;;;;;;5170931;27;46946;-22
2022/01/27 04:52:43;;;;;;;9.77;7.20;;;18.60;28.70;;;;;;5170245;27;47002;-22
2022/01/27 04:55:12;;;;;;;8.27;6.47;;;18.60;28.70;;;;;;5149872;27;46927;-21
2022/01/27 04:57:42;;;;;;;9.13;7.38;;;18.50;28.70;;;;;;5149834;27;47121;-21
2022/01/27 05:00:11;;;;;;;8.73;6.55;;;18.40;28.80;;;;;;5149646;27;46824;-22
2022/01/27 05:02:43;;;;;;;9.82;6.95;;;18.40;28.90;;;;;;5149556;27;47106;-22
2022/01/27 05:05:11;;;;;;;9.68;6.95;;;18.30;28.90;;;;;;5149359;27;47038;-21
2022/01/27 05:07:39;;;;;;;9.73;6.80;;;18.30;29.00;;;;;;5149432;27;47037;-21
2022/01/27 05:10:11;;;;;;;9.73;7.10;;;18.20;29.00;;;;;;5149525;27;46842;-22
2022/01/27 05:12:43;;;;;;;8.85;6.20;;;18.10;29.10;;;;;;5149567;27;47186;-15
2022/01/27 05:15:11;;;;;;;8.95;6.68;;;18.10;29.20;;;;;;5149307;27;48928;-14
2022/01/27 05:17:37;;;;;;;9.27;7.35;;;18.10;29.20;;;;;;5149343;27;47296;-15
2022/01/27 05:20:05;;;;;;;8.77;6.68;;;18.10;29.20;;;;;;5149694;27;46893;-15
2022/01/27 05:22:32;;;;;;;8.75;6.47;;;18.20;29.10;;;;;;5149303;27;46898;-15
2022/01/27 05:25:00;;;;;;;8.80;6.45;;;18.20;29.00;;;;;;5149389;27;48282;-14
2022/01/27 05:27:27;;;;;;;7.55;6.38;;;18.30;29.00;;;;;;5149244;27;47374;-15
2022/01/27 05:29:53;;;;;;;7.68;6.38;;;18.40;28.90;;;;;;5149448;27;46792;-15
2022/01/27 05:32:20;;;;;;;9.20;6.47;;;18.50;28.80;;;;;;5149080;27;47281;-15
2022/01/27 05:34:47;;;;;;;10.25;6.50;;;18.60;28.70;;;;;;5148845;27;48224;-17
2022/01/27 05:37:14;;;;;;;10.25;6.93;;;18.60;28.60;;;;;;5149200;27;46992;-15
2022/01/27 05:39:40;;;;;;;8.48;6.82;;;18.60;28.60;;;;;;5148827;27;46820;-16
2022/01/27 05:42:09;;;;;;;9.98;6.93;;;18.60;28.50;;;;;;5149207;27;47307;-16
2022/01/27 05:44:35;;;;;;;8.68;6.88;;;18.60;28.50;;;;;;5148425;27;47969;-15
2022/01/27 05:47:02;;;;;;;9.57;6.53;;;18.60;28.50;;;;;;5148540;27;46782;-15
2022/01/27 05:49:29;;;;;;;8.98;6.80;;;18.60;28.50;;;;;;5148852;27;46895;-16
2022/01/27 05:51:56;;;;;;;8.65;6.32;;;18.50;28.60;;;;;;5148796;27;47118;-15
2022/01/27 05:54:22;;;;;;;7.53;6.07;;;18.50;28.70;;;;;;5148856;27;46833;-16
2022/01/27 05:56:49;;;;;;;8.88;6.70;;;18.40;28.60;;;;;;5148743;27;46820;-15
2022/01/27 05:59:18;;;;;;;8.88;7.00;;;18.30;28.70;;;;;;5149013;27;46874;-15
2022/01/27 06:01:45;;;;;;;8.38;7.05;;;18.30;29.20;;;;;;5148735;27;47056;-15
2022/01/27 06:04:11;;;;;;;9.65;6.65;;;18.20;28.80;;;;;;5148483;27;48827;-16
2022/01/27 06:06:38;;;;;;;8.50;6.70;;;18.10;28.80;;;;;;5148544;27;47179;-15
2022/01/27 06:09:05;;;;;;;8.05;6.43;;;18.10;29.00;;;;;;5148365;27;46813;-15
2022/01/27 06:11:32;;;;;;;8.43;6.68;;;18.00;29.00;;;;;;5148625;27;46985;-15
2022/01/27 06:13:58;;;;;;;8.50;6.65;;;18.00;29.00;;;;;;5148352;27;47942;-16
2022/01/27 06:16:26;;;;;;;8.88;6.35;;;18.00;29.00;;;;;;5147610;27;46923;-15
2022/01/27 06:18:53;;;;;;;9.02;6.57;;;18.10;29.00;;;;;;5148774;27;46851;-14
2022/01/27 06:21:20;;;;;;;9.20;6.45;;;18.20;28.90;;;;;;5148728;27;46977;-21
2022/01/27 06:23:46;;;;;;;8.88;7.00;;;18.20;28.90;;;;;;5148670;27;49260;-21
2022/01/27 06:26:13;;;;;;;8.40;6.28;;;18.30;28.80;;;;;;5148434;27;47008;-21
2022/01/27 06:28:40;;;;;;;8.15;6.18;;;18.40;29.20;;;;;;5148369;27;47039;-20
2022/01/27 06:31:06;;;;;;;8.32;6.60;;;18.50;28.50;;;;;;5148530;27;47310;-21
2022/01/27 06:33:35;;;;;;;8.57;6.90;;;18.60;28.50;;;;;;5148288;27;48109;-21
2022/01/27 06:36:01;;;;;;;8.18;6.22;;;18.60;28.50;;;;;;5148012;27;47069;-21
2022/01/27 06:38:28;;;;;;;8.85;6.55;;;18.60;28.40;;;;;;5147677;27;47019;-21
2022/01/27 06:40:55;;;;;;;8.18;6.38;;;18.70;28.40;;;;;;5147878;27;47286;-22
2022/01/27 06:43:22;;;;;;;9.15;6.60;;;18.60;28.40;;;;;;5147141;27;47882;-22
2022/01/27 06:45:48;;;;;;;8.57;6.25;;;18.60;28.40;;;;;;5150581;27;46906;-22
2022/01/27 06:48:15;;;;;;;9.15;6.60;;;18.60;28.50;;;;;;5158367;27;46995;-23
2022/01/27 06:50:45;;;;;;;7.82;6.07;;;18.50;28.50;;;;;;5157657;27;47073;-22
2022/01/27 06:53:12;;;;;;;9.18;6.32;;;18.50;28.50;;;;;;5167205;27;49032;-22
2022/01/27 06:55:39;;;;;;;8.27;6.13;;;18.40;28.50;;;;;;5167480;27;47155;-21
2022/01/27 06:58:05;;;;;;;8.07;6.10;;;18.40;28.70;;;;;;5167589;27;46944;-16
2022/01/27 07:00:33;;;;;;;8.23;6.28;;;18.30;28.70;;;;;;5165176;27;46940;-16
2022/01/27 07:03:00;;;;;;;9.43;6.90;;;18.20;28.60;;;;;;5168310;27;46925;-15
2022/01/27 07:05:27;;;;;;;8.57;6.55;;;18.20;28.80;;;;;;5168481;27;46817;-16
2022/01/27 07:07:55;;;;;;;8.07;6.32;;;18.10;28.90;;;;;;5166682;27;47004;-15
2022/01/27 07:10:22;;;;;;;9.18;6.95;;;18.10;29.00;;;;;;5156965;27;47051;-15
2022/01/27 07:12:48;;;;;;;8.02;6.10;;;18.00;29.10;;;;;;5147327;27;46825;-16
2022/01/27 07:15:15;;;;;;;7.85;5.90;;;18.00;29.10;;;;;;5147399;27;46965;-16
2022/01/27 07:17:42;;;;;;;8.65;6.38;;;18.00;29.10;;;;;;5146315;27;47099;-15
2022/01/27 07:20:09;;;;;;;8.10;6.20;;;18.00;29.10;;;;;;5147865;27;47099;-16
2022/01/27 07:22:36;;;;;;;9.57;6.65;;;18.10;29.10;;;;;;5145599;27;47879;-16
2022/01/27 07:25:06;;;;;;;9.57;7.20;;;18.20;29.00;;;;;;5147138;27;46788;-16
2022/01/27 07:27:32;;;;;;;8.00;6.25;;;18.30;28.80;;;;;;5146840;27;47066;-15
2022/01/27 07:29:59;;;;;;;8.93;6.47;;;18.40;28.70;;;;;;5147638;27;46826;-17
2022/01/27 07:32:29;;;;;;;9.55;6.85;;;18.50;28.60;;;;;;5146862;27;47068;-15
2022/01/27 07:34:56;;;;;;;8.60;6.60;;;18.60;28.60;;;;;;5147381;27;46892;-21
2022/01/27 07:37:23;;;;;;;8.65;6.40;;;18.60;28.50;;;;;;5146941;27;46849;-21
2022/01/27 07:39:49;;;;;;;8.07;6.35;;;18.60;28.50;;;;;;5147630;27;47129;-21
2022/01/27 07:42:17;;;;;;;8.38;6.43;;;18.60;28.50;;;;;;5146862;27;48018;-21
2022/01/27 07:44:44;;;;;;;9.07;7.00;;;18.60;28.60;;;;;;5147330;27;46970;-22
2022/01/27 07:47:12;;;;;;;8.70;6.43;;;18.50;28.50;;;;;;5147212;27;46928;-21
2022/01/27 07:49:38;;;;;;;7.78;6.10;;;18.50;28.50;;;;;;5147453;27;46932;-22
2022/01/27 07:52:05;;;;;;;8.57;6.20;;;18.40;28.60;;;;;;5146755;27;47851;-15
2022/01/27 07:54:32;;;;;;;8.60;6.05;;;18.40;28.60;;;;;;5146697;27;47313;-15
2022/01/27 07:56:59;;;;;;;9.10;6.75;;;18.30;28.70;;;;;;5146011;27;47098;-15
2022/01/27 07:59:27;;;;;;;8.75;6.32;;;18.30;28.70;;;;;;5147153;27;47200;-15
2022/01/27 08:01:54;;;;;;;8.85;6.45;;;18.20;28.70;;;;;;5146768;27;46968;-15
2022/01/27 08:04:20;;;;;;;10.70;7.20;;;18.20;28.80;;;;;;5146799;27;47122;-15
2022/01/27 08:06:47;;;;;;;7.68;6.03;;;18.10;28.90;;;;;;5146582;27;46989;-16
2022/01/27 08:09:14;;;;;;;8.60;6.18;;;18.10;29.00;;;;;;5146827;27;46926;-15
2022/01/27 08:11:40;;;;;;;9.43;6.22;;;18.10;28.90;;;;;;5146610;27;48795;-16
2022/01/27 08:14:07;;;;;;;7.40;6.28;;;18.10;28.90;;;;;;5146892;27;47463;-16
2022/01/27 08:16:35;;;;;;;9.10;6.50;;;18.20;28.90;;;;;;5146786;27;46943;-15
2022/01/27 08:19:02;;;;;;;8.65;6.25;;;18.30;28.80;;;;;;5147002;27;46908;-15
2022/01/27 08:21:29;;;;;;;8.48;6.38;;;18.30;28.60;;;;;;5146461;27;49103;-15
2022/01/27 08:23:57;;;;;;;9.13;6.45;;;18.40;28.40;;;;;;5146561;27;47042;-22
2022/01/27 08:26:36;;;;;;;7.07;5.90;;;18.50;28.60;;;;;;5146648;27;46872;-21
2022/01/27 08:29:11;;;;;;;8.60;6.20;;;18.50;28.50;;;;;;5146636;27;46917;-21
2022/01/27 08:31:56;;;;;;;8.52;6.65;;;18.50;28.50;;;;;;5149102;27;47242;-21
2022/01/27 08:34:30;;;;;;;7.43;6.15;;;18.50;28.50;;;;;;5165893;27;47904;-22
2022/01/27 08:36:57;;;;;;;7.28;5.78;;;18.50;28.50;;;;;;5146514;27;47082;-21
2022/01/27 08:39:24;;;;;;;9.82;6.47;;;18.50;28.50;;;;;;5147066;27;47253;-21
2022/01/27 08:41:51;;;;;;;8.82;6.53;;;18.40;28.50;;;;;;5150058;27;47966;-21
2022/01/27 08:44:17;;;;;;;8.77;6.53;;;18.40;28.60;;;;;;5150186;27;46915;-21
2022/01/27 08:46:45;;;;;;;8.57;6.47;;;18.30;28.70;;;;;;5150024;27;46939;-20
2022/01/27 08:49:12;;;;;;;7.95;6.45;;;18.30;28.80;;;;;;5150304;27;46844;-21
2022/01/27 08:51:39;;;;;;;8.50;6.63;;;18.20;28.80;;;;;;5169338;27;47953;-22
2022/01/27 08:54:06;;;;;;;6.55;5.75;;;18.20;28.80;;;;;;5171034;27;47768;-21
2022/01/27 08:56:32;;;;;;;8.75;5.85;;;18.10;28.90;;;;;;5169199;27;46923;-21
2022/01/27 08:58:59;;;;;;;8.07;6.15;;;18.10;28.90;;;;;;5153422;27;46967;-22
2022/01/27 09:01:27;;;;;;;9.70;6.40;;;18.10;28.90;;;;;;5148084;27;49163;-22
2022/01/27 09:03:55;;;;;;;9.15;6.60;;;18.10;28.90;;;;;;5148398;27;47055;-22
2022/01/27 09:06:22;;;;;;;8.68;6.53;;;18.20;28.90;;;;;;5148597;27;46869;-21
2022/01/27 09:08:49;;;;;;;9.23;6.50;;;18.20;28.90;;;;;;5148431;27;46959;-21
2022/01/27 09:11:16;;;;;;;7.75;6.20;;;18.30;28.70;;;;;;5148025;27;48173;-21
2022/01/27 09:13:42;;;;;;;10.60;6.72;;;18.40;28.70;;;;;;5148910;27;47187;-21
2022/01/27 09:16:09;;;;;;;9.25;6.68;;;18.50;28.60;;;;;;5149522;27;47102;-22
2022/01/27 09:18:36;;;;;;;7.90;5.70;;;18.50;28.50;;;;;;5149516;27;46868;-21
2022/01/27 09:21:09;;;;;;;9.10;6.63;;;18.60;28.50;;;;;;5149601;27;47914;-21
2022/01/27 09:23:36;;;;;;;9.18;7.32;;;18.60;28.50;;;;;;5149652;27;46888;-22
2022/01/27 09:26:05;;;;;;;9.75;6.75;;;18.60;28.50;;;;;;5149230;27;46830;-20
2022/01/27 09:28:32;;;;;;;9.52;6.05;;;18.50;28.50;;;;;;5149288;27;46905;-22
2022/01/27 09:31:01;;;;;;;7.22;5.57;;;18.50;28.50;;;;;;5149524;27;46794;-21
2022/01/27 09:33:28;;;;;;;7.93;6.43;;;18.50;28.40;;;;;;5148909;27;46956;-21
2022/01/27 09:35:55;;;;;;;9.35;6.22;;;18.40;28.50;;;;;;5149134;27;46906;-16
2022/01/27 09:38:23;;;;;;;8.77;6.57;;;18.40;28.50;;;;;;5149107;27;46975;-16
2022/01/27 09:40:51;;;;;;;7.10;5.65;;;18.30;28.60;;;;;;5130793;27;47883;-15
2022/01/27 09:43:19;;;;;;;8.20;6.32;;;18.30;28.70;;;;;;5149002;27;46876;-16
2022/01/27 09:45:46;;;;;;;8.05;5.75;;;18.20;28.70;;;;;;5149222;27;46861;-15
2022/01/27 09:48:15;;;;;;;6.70;5.97;;;18.20;28.80;;;;;;5149120;27;47258;-16
2022/01/27 09:51:00;;;;;;;7.07;5.72;;;18.10;28.80;;;;;;5148989;27;48181;-16
2022/01/27 09:53:30;;;;;;;7.90;6.22;;;18.10;28.80;;;;;;5149020;27;46868;-15
2022/01/27 09:55:57;;;;;;;8.50;6.43;;;18.10;28.90;;;;;;5151160;27;46736;-15
2022/01/27 09:58:24;;;;;;;7.22;5.60;;;18.10;28.90;;;;;;5169187;27;46899;-16
2022/01/27 10:00:50;;;;;;;6.90;5.28;;;18.10;28.90;;;;;;5169368;27;48368;-15
2022/01/27 10:03:17;;;;;;;7.15;5.78;;;18.30;28.80;;;;;;5169674;27;46902;-15
2022/01/27 10:05:44;;;;;;;8.77;6.20;;;18.30;28.70;;;;;;5169050;27;46891;-16
2022/01/27 10:08:14;;;;;;;7.25;5.78;;;18.40;28.50;;;;;;5169559;27;47209;-15
2022/01/27 10:10:43;;;;;;;9.48;5.78;;;18.40;28.40;;;;;;5169362;27;48145;-15
2022/01/27 10:13:11;;;;;;;7.18;5.57;;;18.50;28.40;;;;;;5169405;27;46828;-15
2022/01/27 10:15:38;;;;;;;7.28;6.10;;;18.50;28.40;;;;;;5169474;27;46850;-15
2022/01/27 10:18:11;;;;;;;7.15;5.35;;;18.60;28.40;;;;;;5168983;27;47092;-17
2022/01/27 10:20:38;;;;;;;7.40;5.90;;;18.50;28.40;;;;;;5175663;27;48113;-16
2022/01/27 10:23:12;;;;;;;5.78;5.18;;;18.50;28.40;;;;;;5177897;27;46893;-17
2022/01/27 10:25:46;;;;;;;7.90;5.70;;;18.50;28.40;;;;;;5176837;27;46899;-17
2022/01/27 10:28:39;;;;;;;6.57;5.38;;;18.40;28.40;;;;;;5175080;27;46838;-16
2022/01/27 10:31:07;;;;;;;8.13;6.18;;;18.40;28.50;;;;;;5178460;27;48240;-15
2022/01/27 10:33:48;;;;;;;7.90;6.03;;;18.30;28.50;;;;;;5178301;27;46919;-15
2022/01/27 10:36:35;;;;;;;7.80;5.47;;;18.30;28.70;;;;;;5190530;27;46865;-16
2022/01/27 10:39:04;;;;;;;6.78;5.68;;;18.20;28.70;;;;;;5190431;27;46893;-16
2022/01/27 10:41:32;;;;;;;6.43;4.95;;;18.20;28.60;;;;;;5189907;27;48343;-16
2022/01/27 10:44:16;;;;;;;7.63;5.82;;;18.10;28.80;;;;;;5189269;27;46942;-21
2022/01/27 10:47:01;;;;;;;7.00;5.63;;;18.10;28.80;;;;;;5189705;27;46978;-16
2022/01/27 10:49:29;;;;;;;7.03;5.45;;;18.10;28.80;;;;;;5190304;27;46996;-16
2022/01/27 10:51:56;;;;;;;7.63;5.30;;;18.20;28.80;;;;;;5189698;27;48110;-16
2022/01/27 10:54:36;;;;;;;6.88;5.05;;;18.20;28.80;;;;;;5189790;27;46893;-15
2022/01/27 10:57:03;;;;;;;7.05;5.28;;;18.30;28.70;;;;;;5189705;27;46951;-16
2022/01/27 10:59:33;;;;;;;6.55;5.50;;;18.40;28.60;;;;;;5190087;27;47078;-16
2022/01/27 11:01:59;;;;;;;6.88;5.25;;;18.50;28.50;;;;;;5189602;27;47917;-15
2022/01/27 11:04:33;;;;;;;7.45;5.82;;;18.60;28.50;;;;;;5189672;27;47245;-16
2022/01/27 11:07:01;;;;;;;7.00;5.30;;;18.60;28.40;;;;;;5189639;27;47042;-15
2022/01/27 11:09:29;;;;;;;5.82;5.10;;;18.70;28.30;;;;;;5190119;27;47120;-16
2022/01/27 11:11:57;;;;;;;6.45;5.35;;;18.70;28.30;;;;;;5189402;27;48092;-16
2022/01/27 11:14:25;;;;;;;6.35;5.18;;;18.70;28.00;;;;;;5189812;27;46900;-15
2022/01/27 11:16:56;;;;;;;6.97;5.25;;;18.70;28.30;;;;;;5189581;27;46968;-16
2022/01/27 11:19:41;;;;;;;6.45;5.28;;;18.60;28.30;;;;;;5189831;27;47080;-16
2022/01/27 11:22:22;;;;;;;8.18;5.70;;;18.60;28.40;;;;;;5189556;27;48126;-16
2022/01/27 11:25:08;;;;;;;6.32;4.88;;;18.60;28.50;;;;;;5189817;27;46941;-15
2022/01/27 11:27:36;;;;;;;6.57;5.43;;;18.50;28.50;;;;;;5189749;27;46908;-16
2022/01/27 11:30:05;;;;;;;6.20;5.07;;;18.40;28.50;;;;;;5189615;27;46877;-15
2022/01/27 11:32:36;;;;;;;6.50;5.05;;;18.40;28.50;;;;;;5188880;27;47925;-15
2022/01/27 11:35:03;;;;;;;6.97;4.97;;;18.30;28.60;;;;;;5189261;27;46752;-16
2022/01/27 11:37:30;;;;;;;7.00;5.10;;;18.20;28.70;;;;;;5189219;27;46879;-16
2022/01/27 11:39:57;;;;;;;6.20;5.07;;;18.10;28.70;;;;;;5189704;27;46829;-21
2022/01/27 11:42:43;;;;;;;6.80;5.38;;;18.10;28.90;;;;;;5189198;27;47064;-21
2022/01/27 11:45:26;;;;;;;6.63;5.35;;;18.10;28.90;;;;;;5189624;27;46985;-20
2022/01/27 11:47:56;;;;;;;5.97;5.13;;;18.10;28.90;;;;;;5189317;27;47006;-21
2022/01/27 11:50:32;;;;;;;6.55;5.18;;;18.10;28.90;;;;;;5189490;27;46876;-21
2022/01/27 11:52:58;;;;;;;6.97;4.82;;;18.20;28.90;;;;;;5189111;27;47934;-22
2022/01/27 11:55:50;;;;;;;6.05;4.82;;;18.30;28.80;;;;;;5189734;27;47363;-22
2022/01/27 11:58:20;;;;;;;5.32;4.55;;;18.40;28.70;;;;;;5162424;27;46803;-21
2022/01/27 12:01:07;;;;;;;7.22;5.72;;;18.40;28.50;;;;;;5188785;27;47032;-21
2022/01/27 12:03:35;;;;;;;6.78;5.15;;;18.50;28.50;;;;;;5188926;27;47978;-21
2022/01/27 12:06:21;;;;;;;7.50;5.10;;;18.60;28.40;;;;;;5188926;27;47280;-21
2022/01/27 12:08:48;;;;;;;6.13;4.65;;;18.60;28.30;;;;;;5189470;27;46774;-21
2022/01/27 12:11:45;;;;;;;6.05;5.13;;;18.70;28.30;;;;;;5188909;27;47177;-21
2022/01/27 12:14:13;;;;;;;6.05;5.10;;;18.70;28.40;;;;;;5189039;27;48191;-21
2022/01/27 12:16:57;;;;;;;7.57;5.10;;;18.60;28.30;;;;;;5192408;27;46857;-22
2022/01/27 12:19:25;;;;;;;5.93;5.15;;;18.60;28.30;;;;;;5192628;27;46896;-21
2022/01/27 12:21:57;;;;;;;7.00;5.20;;;18.70;28.30;;;;;;5192650;27;47122;-21
2022/01/27 12:24:24;;;;;;;6.13;4.90;;;18.70;28.30;;;;;;5192600;27;47242;-22
2022/01/27 12:26:53;;;;;;;7.20;5.10;;;18.70;28.30;;;;;;5192499;27;46966;-21
2022/01/27 12:29:24;;;;;;;6.60;5.25;;;18.70;28.30;;;;;;5192463;27;46809;-22
2022/01/27 12:31:51;;;;;;;6.45;5.05;;;18.70;28.70;;;;;;5191991;27;47252;-21
2022/01/27 12:34:18;;;;;;;6.97;5.35;;;18.70;28.30;;;;;;5192237;27;48223;-21
2022/01/27 12:37:06;;;;;;;6.75;5.20;;;18.70;28.30;;;;;;5191880;27;46816;-21
2022/01/27 12:39:35;;;;;;;5.93;4.40;;;18.60;28.30;;;;;;5192553;27;46806;-22
2022/01/27 12:42:02;;;;;;;5.45;4.70;;;18.70;28.40;;;;;;5192044;27;46891;-22
2022/01/27 12:44:30;;;;;;;6.55;4.68;;;18.70;28.30;;;;;;5192012;27;48006;-21
2022/01/27 12:47:07;;;;;;;6.50;5.47;;;18.80;28.30;;;;;;5191947;27;47203;-21
2022/01/27 12:49:43;;;;;;;6.60;5.07;;;18.90;28.10;;;;;;5192279;27;47012;-21
2022/01/27 12:52:12;;;;;;;5.63;5.03;;;19.00;28.10;;;;;;5192282;27;46928;-21
2022/01/27 12:54:39;;;;;;;6.25;4.93;;;19.10;27.90;;;;;;5192003;27;48117;-21
2022/01/27 12:57:06;;;;;;;6.07;5.00;;;19.30;27.80;;;;;;5192149;27;47410;-21
2022/01/27 12:59:35;;;;;;;6.47;5.47;;;19.40;27.70;;;;;;5191762;27;46868;-21
2022/01/27 13:02:02;;;;;;;6.88;4.53;;;19.50;27.50;;;;;;5192078;27;46908;-21
2022/01/27 13:04:29;;;;;;;6.53;5.20;;;19.50;27.50;;;;;;5192014;27;46896;-22
2022/01/27 13:06:56;;;;;;;5.70;4.80;;;19.60;27.60;;;;;;5191732;27;46844;-21
2022/01/27 13:09:25;;;;;;;6.03;5.20;;;19.60;27.60;;;;;;5191555;27;46990;-22
2022/01/27 13:11:54;;;;;;;5.55;4.75;;;19.60;27.50;;;;;;5191666;27;47081;-21
2022/01/27 13:14:21;;;;;;;7.05;5.03;;;19.60;27.50;;;;;;5191854;27;48364;-21
2022/01/27 13:16:51;;;;;;;6.47;4.97;;;19.60;27.60;;;;;;5191209;27;47007;-21